createdAt,value
2022-07-31T00:00:31.597Z,11.10
2022-07-31T00:03:07.678Z,10.00
2022-07-31T00:05:38.612Z,12.80
2022-07-31T00:08:10.881Z,9.80
2022-07-31T00:10:39.839Z,10.70
2022-07-31T00:13:08.747Z,10.80
2022-07-31T00:15:39.425Z,15.30
2022-07-31T00:18:08.829Z,13.00
2022-07-31T00:20:37.980Z,11.10
2022-07-31T00:23:06.767Z,12.60
2022-07-31T00:25:35.555Z,13.90
2022-07-31T00:28:06.735Z,8.30
2022-07-31T00:30:35.543Z,15.00
2022-07-31T00:33:04.601Z,12.30
2022-07-31T00:35:33.577Z,9.00
2022-07-31T00:38:36.241Z,13.20
2022-07-31T00:40:51.735Z,9.90
2022-07-31T00:43:20.805Z,11.80
2022-07-31T00:45:58.788Z,10.80
2022-07-31T00:48:28.283Z,11.80
2022-07-31T00:50:58.499Z,9.70
2022-07-31T00:53:27.462Z,12.20
2022-07-31T00:55:57.360Z,12.00
2022-07-31T00:58:26.340Z,12.10
2022-07-31T01:00:55.169Z,13.30
2022-07-31T01:03:24.276Z,11.30
2022-07-31T01:05:53.038Z,8.60
2022-07-31T01:08:21.831Z,10.60
2022-07-31T01:10:56.373Z,13.20
2022-07-31T01:13:35.297Z,11.00
2022-07-31T01:16:07.432Z,10.20
2022-07-31T01:18:39.457Z,10.10
2022-07-31T01:21:13.551Z,12.20
2022-07-31T01:24:10.813Z,10.40
2022-07-31T01:26:48.204Z,11.30
2022-07-31T01:29:27.091Z,16.40
2022-07-31T01:32:02.884Z,10.90
2022-07-31T01:34:39.351Z,12.70
2022-07-31T01:37:14.072Z,9.70
2022-07-31T01:39:50.824Z,8.00
2022-07-31T01:42:23.823Z,24.50
2022-07-31T01:44:56.673Z,8.60
2022-07-31T01:47:27.979Z,9.60
2022-07-31T01:50:00.753Z,14.00
2022-07-31T01:52:32.284Z,6.30
2022-07-31T01:55:02.663Z,7.00
2022-07-31T01:57:34.099Z,6.60
2022-07-31T02:00:06.156Z,13.10
2022-07-31T02:02:58.067Z,7.40
2022-07-31T02:07:59.137Z,6.90
2022-07-31T02:10:29.700Z,8.50
2022-07-31T02:13:02.223Z,12.30
2022-07-31T02:15:32.665Z,8.10
2022-07-31T02:18:02.884Z,6.90
2022-07-31T02:20:33.229Z,8.70
2022-07-31T02:23:02.152Z,9.10
2022-07-31T02:25:34.768Z,7.50
2022-07-31T02:28:08.804Z,7.90
2022-07-31T02:30:42.367Z,9.50
2022-07-31T02:33:14.220Z,7.70
2022-07-31T02:35:45.339Z,9.00
2022-07-31T02:38:22.611Z,8.60
2022-07-31T02:40:55.366Z,8.80
2022-07-31T02:43:25.391Z,11.00
2022-07-31T02:45:54.646Z,9.20
2022-07-31T02:48:24.833Z,9.40
2022-07-31T02:50:54.256Z,11.50
2022-07-31T02:53:23.753Z,11.40
2022-07-31T02:55:53.586Z,9.20
2022-07-31T02:58:22.532Z,10.80
2022-07-31T03:01:00.711Z,8.80
2022-07-31T03:03:29.856Z,10.90
2022-07-31T03:05:58.724Z,9.70
2022-07-31T03:08:27.712Z,9.90
2022-07-31T03:10:58.183Z,10.10
2022-07-31T03:13:29.695Z,10.20
2022-07-31T03:15:59.172Z,9.90
2022-07-31T03:18:28.896Z,10.80
2022-07-31T03:20:57.891Z,8.90
2022-07-31T03:23:35.468Z,9.10
2022-07-31T03:26:05.386Z,8.90
2022-07-31T03:28:35.451Z,10.40
2022-07-31T03:31:04.580Z,9.30
2022-07-31T03:33:33.568Z,10.30
2022-07-31T03:36:03.918Z,12.10
2022-07-31T03:38:42.248Z,11.90
2022-07-31T03:41:12.243Z,9.20
2022-07-31T03:43:48.097Z,13.20
2022-07-31T03:46:19.784Z,11.50
2022-07-31T03:48:51.416Z,8.90
2022-07-31T03:51:20.611Z,8.80
2022-07-31T03:53:51.037Z,7.70
2022-07-31T03:56:20.980Z,15.30
2022-07-31T03:58:52.672Z,9.80
2022-07-31T04:01:22.503Z,11.50
2022-07-31T04:03:59.636Z,12.90
2022-07-31T04:06:28.580Z,10.10
2022-07-31T04:08:57.436Z,10.80
2022-07-31T04:11:26.253Z,12.50
2022-07-31T04:13:55.601Z,12.40
2022-07-31T04:16:24.387Z,12.60
2022-07-31T04:18:53.236Z,11.50
2022-07-31T04:21:22.063Z,16.00
2022-07-31T04:23:50.891Z,10.40
2022-07-31T04:26:26.138Z,14.20
2022-07-31T04:28:55.493Z,14.30
2022-07-31T04:31:24.335Z,11.30
2022-07-31T04:33:56.569Z,12.50
2022-07-31T04:36:29.451Z,11.20
2022-07-31T04:39:00.075Z,12.00
2022-07-31T04:41:28.889Z,9.60
2022-07-31T04:43:59.076Z,12.60
2022-07-31T04:46:28.073Z,12.20
2022-07-31T04:48:57.039Z,11.30
2022-07-31T04:51:26.023Z,11.40
2022-07-31T04:53:54.816Z,11.60
2022-07-31T04:56:41.961Z,14.20
2022-07-31T04:59:12.904Z,12.10
2022-07-31T05:01:43.417Z,12.40
2022-07-31T05:04:12.739Z,12.30
2022-07-31T05:06:44.856Z,13.80
2022-07-31T05:09:18.844Z,11.70
2022-07-31T05:11:48.931Z,11.60
2022-07-31T05:14:19.503Z,11.30
2022-07-31T05:16:48.678Z,12.30
2022-07-31T05:19:18.025Z,12.50
2022-07-31T05:21:53.610Z,13.10
2022-07-31T05:24:33.521Z,17.70
2022-07-31T05:27:03.760Z,10.90
2022-07-31T05:29:33.893Z,15.90
2022-07-31T05:32:03.056Z,13.40
2022-07-31T05:34:32.407Z,13.20
2022-07-31T05:37:02.620Z,12.30
2022-07-31T05:39:31.493Z,13.80
2022-07-31T05:42:00.332Z,12.10
2022-07-31T05:44:29.163Z,13.10
2022-07-31T05:49:28.525Z,15.40
2022-07-31T05:51:57.475Z,14.80
2022-07-31T05:54:26.299Z,13.90
2022-07-31T05:56:55.055Z,14.10
2022-07-31T05:59:24.271Z,12.90
2022-07-31T06:01:53.513Z,12.90
2022-07-31T06:04:22.351Z,13.10
2022-07-31T06:06:51.168Z,14.30
2022-07-31T06:09:20.187Z,12.40
2022-07-31T06:11:49.135Z,13.70
2022-07-31T06:14:17.957Z,13.00
2022-07-31T06:16:49.100Z,15.40
2022-07-31T06:19:19.660Z,13.10
2022-07-31T06:21:54.163Z,12.40
2022-07-31T06:24:23.033Z,13.50
2022-07-31T06:26:57.589Z,14.90
2022-07-31T06:29:41.034Z,17.50
2022-07-31T06:32:10.973Z,13.40
2022-07-31T06:34:42.739Z,12.40
2022-07-31T06:37:12.000Z,13.10
2022-07-31T06:39:55.820Z,12.80
2022-07-31T06:42:26.396Z,12.70
2022-07-31T06:44:55.447Z,14.00
2022-07-31T06:47:25.589Z,11.90
2022-07-31T06:49:55.598Z,12.60
2022-07-31T06:52:24.552Z,13.70
2022-07-31T06:54:53.359Z,11.10
2022-07-31T06:57:22.231Z,12.90
2022-07-31T06:59:51.170Z,12.60
2022-07-31T07:02:19.998Z,11.80
2022-07-31T07:05:00.795Z,12.50
2022-07-31T07:07:38.920Z,14.50
2022-07-31T07:10:08.276Z,11.70
2022-07-31T07:12:37.192Z,12.50
2022-07-31T07:15:08.735Z,12.10
2022-07-31T07:17:37.562Z,12.10
2022-07-31T07:20:08.736Z,12.80
2022-07-31T07:22:37.520Z,19.60
2022-07-31T07:25:07.796Z,13.30
2022-07-31T07:27:36.628Z,12.40
2022-07-31T07:30:07.555Z,14.80
2022-07-31T07:32:36.374Z,13.70
2022-07-31T07:35:08.583Z,12.10
2022-07-31T07:37:39.277Z,11.80
2022-07-31T07:40:10.496Z,12.70
2022-07-31T07:42:39.304Z,12.50
2022-07-31T07:45:10.051Z,10.30
2022-07-31T07:47:53.701Z,11.30
2022-07-31T07:50:29.242Z,11.30
2022-07-31T07:52:58.697Z,9.70
2022-07-31T07:55:27.748Z,16.20
2022-07-31T07:58:10.080Z,11.00
2022-07-31T08:00:41.342Z,10.10
2022-07-31T08:03:50.311Z,10.00
2022-07-31T08:05:59.543Z,9.70
2022-07-31T08:08:28.587Z,11.00
2022-07-31T08:10:57.557Z,9.90
2022-07-31T08:13:26.612Z,11.10
2022-07-31T08:15:55.551Z,11.50
2022-07-31T08:18:27.216Z,10.00
2022-07-31T08:20:57.757Z,9.60
2022-07-31T08:23:26.574Z,11.00
2022-07-31T08:25:55.491Z,9.40
2022-07-31T08:28:26.176Z,10.50
2022-07-31T08:30:54.998Z,9.80
2022-07-31T08:33:23.809Z,10.70
2022-07-31T08:35:52.607Z,10.10
2022-07-31T08:38:21.704Z,10.70
2022-07-31T08:40:50.658Z,11.50
2022-07-31T08:44:02.062Z,12.90
2022-07-31T08:46:09.423Z,14.50
2022-07-31T08:48:42.081Z,11.40
2022-07-31T08:51:13.584Z,11.90
2022-07-31T08:53:44.368Z,13.30
2022-07-31T08:56:13.572Z,13.90
2022-07-31T08:58:42.601Z,13.00
2022-07-31T09:01:13.923Z,15.40
2022-07-31T09:03:43.547Z,13.90
2022-07-31T09:06:12.479Z,14.90
2022-07-31T09:08:41.363Z,13.40
2022-07-31T09:11:12.136Z,13.20
2022-07-31T09:14:01.704Z,12.30
2022-07-31T09:16:44.344Z,14.40
2022-07-31T09:19:51.724Z,11.80
2022-07-31T09:22:05.232Z,13.60
2022-07-31T09:24:39.795Z,14.00
2022-07-31T09:27:10.199Z,14.00
2022-07-31T09:29:43.619Z,13.80
2022-07-31T09:32:14.162Z,12.20
2022-07-31T09:34:44.140Z,13.00
2022-07-31T09:37:14.850Z,14.30
2022-07-31T09:39:52.388Z,14.30
2022-07-31T09:42:22.434Z,14.80
2022-07-31T09:44:52.472Z,13.00
2022-07-31T09:47:22.822Z,16.10
2022-07-31T09:49:57.780Z,17.10
2022-07-31T09:52:28.963Z,16.10
2022-07-31T09:55:15.780Z,14.10
2022-07-31T09:57:54.036Z,15.80
2022-07-31T10:00:23.985Z,16.50
2022-07-31T10:02:54.937Z,19.40
2022-07-31T10:05:25.924Z,20.00
2022-07-31T10:07:56.736Z,20.60
2022-07-31T10:10:26.215Z,23.10
2022-07-31T10:12:56.530Z,22.00
2022-07-31T10:15:28.084Z,24.10
2022-07-31T10:17:58.076Z,23.80
2022-07-31T10:20:28.758Z,25.80
2022-07-31T10:23:03.831Z,25.80
2022-07-31T10:28:01.524Z,26.00
2022-07-31T10:30:30.840Z,28.40
2022-07-31T10:33:00.051Z,28.10
2022-07-31T10:35:29.321Z,30.40
2022-07-31T10:38:06.309Z,28.70
2022-07-31T10:40:41.845Z,29.80
2022-07-31T10:43:24.459Z,28.90
2022-07-31T10:45:55.382Z,29.20
2022-07-31T10:48:24.308Z,30.30
2022-07-31T10:51:03.609Z,27.20
2022-07-31T10:53:51.310Z,30.60
2022-07-31T10:56:21.780Z,32.90
2022-07-31T10:58:52.020Z,32.30
2022-07-31T11:01:22.146Z,25.80
2022-07-31T11:03:59.267Z,32.30
2022-07-31T11:06:39.927Z,33.30
2022-07-31T11:09:09.141Z,31.40
2022-07-31T11:11:38.222Z,29.00
2022-07-31T11:14:07.056Z,32.80
2022-07-31T11:16:36.217Z,32.20
2022-07-31T11:19:06.297Z,31.90
2022-07-31T11:21:39.265Z,30.40
2022-07-31T11:24:16.832Z,29.00
2022-07-31T11:26:52.843Z,25.90
2022-07-31T11:30:00.250Z,24.60
2022-07-31T11:32:25.830Z,25.30
2022-07-31T11:34:56.229Z,27.60
2022-07-31T11:37:44.102Z,25.80
2022-07-31T11:40:16.105Z,24.60
2022-07-31T11:42:55.718Z,27.10
2022-07-31T11:45:33.813Z,27.00
2022-07-31T11:48:12.125Z,24.70
2022-07-31T11:50:43.123Z,23.70
2022-07-31T11:53:12.956Z,23.70
2022-07-31T11:55:53.792Z,21.80
2022-07-31T11:58:24.952Z,21.70
2022-07-31T12:00:55.182Z,20.50
2022-07-31T12:03:26.032Z,22.10
2022-07-31T12:05:55.459Z,16.60
2022-07-31T12:08:25.919Z,19.80
2022-07-31T12:10:56.729Z,18.20
2022-07-31T12:13:27.036Z,17.00
2022-07-31T12:16:00.943Z,21.90
2022-07-31T12:18:31.370Z,19.50
2022-07-31T12:21:02.927Z,20.60
2022-07-31T12:23:42.182Z,18.50
2022-07-31T12:26:21.226Z,21.30
2022-07-31T12:28:58.985Z,20.30
2022-07-31T12:31:29.394Z,18.70
2022-07-31T12:33:58.162Z,20.30
2022-07-31T12:36:27.233Z,22.30
2022-07-31T12:39:03.563Z,20.90
2022-07-31T12:41:42.802Z,18.10
2022-07-31T12:44:14.393Z,20.70
2022-07-31T12:46:43.956Z,19.20
2022-07-31T12:49:13.333Z,14.70
2022-07-31T12:51:44.775Z,15.60
2022-07-31T12:54:16.755Z,16.20
2022-07-31T12:56:46.631Z,12.90
2022-07-31T12:59:15.708Z,12.20
2022-07-31T13:01:44.640Z,15.60
2022-07-31T13:04:18.764Z,11.60
2022-07-31T13:06:50.728Z,11.60
2022-07-31T13:09:20.359Z,9.90
2022-07-31T13:11:54.487Z,9.20
2022-07-31T13:14:26.435Z,8.90
2022-07-31T13:16:56.831Z,8.10
2022-07-31T13:19:26.819Z,9.50
2022-07-31T13:21:56.733Z,6.50
2022-07-31T13:24:25.909Z,6.90
2022-07-31T13:26:54.802Z,7.00
2022-07-31T13:29:23.748Z,6.00
2022-07-31T13:31:52.898Z,8.80
2022-07-31T13:34:21.835Z,5.90
2022-07-31T13:36:50.623Z,5.30
2022-07-31T13:39:19.582Z,16.60
2022-07-31T13:41:48.367Z,5.80
2022-07-31T13:44:17.235Z,4.60
2022-07-31T13:46:46.107Z,3.70
2022-07-31T13:49:15.039Z,3.20
2022-07-31T13:51:43.882Z,4.60
2022-07-31T13:54:13.414Z,3.50
2022-07-31T13:56:43.503Z,3.30
2022-07-31T13:59:13.662Z,3.70
2022-07-31T14:02:02.976Z,2.80
2022-07-31T14:04:38.983Z,3.30
2022-07-31T14:07:08.992Z,3.10
2022-07-31T14:09:38.258Z,3.10
2022-07-31T14:12:09.878Z,5.10
2022-07-31T14:14:40.628Z,6.10
2022-07-31T14:17:09.564Z,3.60
2022-07-31T14:19:44.461Z,2.70
2022-07-31T14:22:14.326Z,3.20
2022-07-31T14:24:50.553Z,3.70
2022-07-31T14:27:20.812Z,3.20
2022-07-31T14:29:49.962Z,3.30
2022-07-31T14:32:21.333Z,3.20
2022-07-31T14:34:50.428Z,3.00
2022-07-31T14:37:20.224Z,2.90
2022-07-31T14:39:49.190Z,3.80
2022-07-31T14:42:22.247Z,2.90
2022-07-31T14:44:54.534Z,9.80
2022-07-31T14:47:23.747Z,7.20
2022-07-31T14:50:08.703Z,7.60
2022-07-31T14:52:39.765Z,8.10
2022-07-31T14:55:10.131Z,10.30
2022-07-31T14:57:39.088Z,6.10
2022-07-31T15:00:12.349Z,7.50
2022-07-31T15:02:42.117Z,6.20
2022-07-31T15:06:39.696Z,5.20
2022-07-31T15:08:02.678Z,5.60
2022-07-31T15:10:33.401Z,4.40
2022-07-31T15:13:02.339Z,5.80
2022-07-31T15:15:33.706Z,4.10
2022-07-31T15:18:03.184Z,5.60
2022-07-31T15:20:33.708Z,4.80
2022-07-31T15:23:02.934Z,4.00
2022-07-31T15:25:32.028Z,2.30
2022-07-31T15:28:00.858Z,2.20
2022-07-31T15:30:29.878Z,2.20
2022-07-31T15:32:58.784Z,2.30
2022-07-31T15:35:27.994Z,2.60
2022-07-31T15:37:58.640Z,3.80
2022-07-31T15:40:27.622Z,2.30
2022-07-31T15:42:56.448Z,2.60
2022-07-31T15:45:25.213Z,2.40
2022-07-31T15:47:54.289Z,4.00
2022-07-31T15:50:23.255Z,1.90
2022-07-31T15:52:52.232Z,4.00
2022-07-31T15:55:21.187Z,1.80
2022-07-31T15:57:50.095Z,1.40
2022-07-31T16:00:20.796Z,1.70
2022-07-31T16:02:50.412Z,2.80
2022-07-31T16:05:35.888Z,2.10
2022-07-31T16:08:31.995Z,4.80
2022-07-31T16:10:57.170Z,1.90
2022-07-31T16:13:26.519Z,1.80
2022-07-31T16:15:55.516Z,1.80
2022-07-31T16:18:24.335Z,1.90
2022-07-31T16:20:53.407Z,1.20
2022-07-31T16:23:25.063Z,1.40
2022-07-31T16:25:54.469Z,2.10
2022-07-31T16:28:23.363Z,1.40
2022-07-31T16:30:52.209Z,2.90
2022-07-31T16:33:20.993Z,2.00
2022-07-31T16:35:49.851Z,2.00
2022-07-31T16:38:18.715Z,2.20
2022-07-31T16:40:51.830Z,4.00
2022-07-31T16:43:49.894Z,3.90
2022-07-31T16:46:11.168Z,1.90
2022-07-31T16:48:40.251Z,2.70
2022-07-31T16:51:09.385Z,2.30
2022-07-31T16:54:11.251Z,2.00
2022-07-31T16:56:27.139Z,2.70
2022-07-31T16:58:57.956Z,1.60
2022-07-31T17:01:54.115Z,2.50
2022-07-31T17:04:15.960Z,4.10
2022-07-31T17:06:44.913Z,3.50
2022-07-31T17:09:17.076Z,3.60
2022-07-31T17:11:49.439Z,3.00
2022-07-31T17:14:20.160Z,3.60
2022-07-31T17:16:50.209Z,2.90
2022-07-31T17:19:41.812Z,2.10
2022-07-31T17:22:11.405Z,2.00
2022-07-31T17:24:41.000Z,2.20
2022-07-31T17:27:10.453Z,1.80
2022-07-31T17:29:39.771Z,2.00
2022-07-31T17:32:11.304Z,2.60
2022-07-31T17:34:44.473Z,1.80
2022-07-31T17:37:13.603Z,1.70
2022-07-31T17:39:42.451Z,2.50
2022-07-31T17:42:11.243Z,1.80
2022-07-31T17:44:40.697Z,2.50
2022-07-31T17:47:18.669Z,2.10
2022-07-31T17:49:48.184Z,3.60
2022-07-31T17:52:17.287Z,2.70
2022-07-31T17:54:46.217Z,4.60
2022-07-31T17:57:15.689Z,4.70
2022-07-31T17:59:44.671Z,5.30
2022-07-31T18:02:13.664Z,3.70
2022-07-31T18:04:42.505Z,2.80
2022-07-31T18:07:11.411Z,3.80
2022-07-31T18:09:40.376Z,4.20
2022-07-31T18:12:14.869Z,4.00
2022-07-31T18:14:45.971Z,8.80
2022-07-31T18:17:14.988Z,6.00
2022-07-31T18:19:43.824Z,4.20
2022-07-31T18:22:12.891Z,3.40
2022-07-31T18:24:42.165Z,5.50
2022-07-31T18:27:11.047Z,36.70
2022-07-31T18:29:39.853Z,6.60
2022-07-31T18:32:09.647Z,10.90
2022-07-31T18:34:38.596Z,6.20
2022-07-31T18:37:07.437Z,5.00
2022-07-31T18:39:49.276Z,6.30
2022-07-31T18:42:18.574Z,6.30
2022-07-31T18:44:47.538Z,7.80
2022-07-31T18:47:16.519Z,7.10
2022-07-31T18:51:00.329Z,6.00
2022-07-31T18:52:34.883Z,7.00
2022-07-31T18:55:04.171Z,7.00
2022-07-31T18:57:33.171Z,8.50
2022-07-31T19:00:02.226Z,7.00
2022-07-31T19:02:31.271Z,7.60
2022-07-31T19:05:00.327Z,7.10
2022-07-31T19:07:29.745Z,8.80
2022-07-31T19:10:07.298Z,8.90
2022-07-31T19:12:36.457Z,8.60
2022-07-31T19:15:07.581Z,8.70
2022-07-31T19:17:44.357Z,9.40
2022-07-31T19:20:40.499Z,7.60
2022-07-31T19:23:02.976Z,9.60
2022-07-31T19:26:02.291Z,9.60
2022-07-31T19:28:26.652Z,9.30
2022-07-31T19:30:56.257Z,8.80
2022-07-31T19:33:25.042Z,12.70
2022-07-31T19:35:58.942Z,9.10
2022-07-31T19:38:31.933Z,9.90
2022-07-31T19:41:00.897Z,10.20
2022-07-31T19:43:30.322Z,9.60
2022-07-31T19:46:10.407Z,10.20
2022-07-31T19:48:41.050Z,9.10
2022-07-31T19:51:11.447Z,9.60
2022-07-31T19:53:41.113Z,10.30
2022-07-31T19:56:11.488Z,9.10
2022-07-31T19:58:41.228Z,9.50
2022-07-31T20:01:11.076Z,8.50
2022-07-31T20:03:39.989Z,10.00
2022-07-31T20:06:08.858Z,8.70
2022-07-31T20:08:38.005Z,8.80
2022-07-31T20:11:07.096Z,9.60
2022-07-31T20:13:37.096Z,9.50
2022-07-31T20:16:06.894Z,8.20
2022-07-31T20:18:35.969Z,7.60
2022-07-31T20:21:08.037Z,7.00
2022-07-31T20:23:38.624Z,9.70
2022-07-31T20:26:09.321Z,7.20
2022-07-31T20:28:39.605Z,7.10
2022-07-31T20:31:18.562Z,6.90
2022-07-31T20:33:57.770Z,6.70
2022-07-31T20:36:28.499Z,7.40
2022-07-31T20:38:58.139Z,7.00
2022-07-31T20:41:27.246Z,6.80
2022-07-31T20:43:56.200Z,7.20
2022-07-31T20:46:25.247Z,11.50
2022-07-31T20:48:55.774Z,6.90
2022-07-31T20:51:24.661Z,7.80
2022-07-31T20:53:54.357Z,7.40
2022-07-31T20:56:23.508Z,7.20
2022-07-31T20:58:52.754Z,7.50
2022-07-31T21:01:22.387Z,7.80
2022-07-31T21:03:51.757Z,7.30
2022-07-31T21:06:20.990Z,7.80
2022-07-31T21:08:50.065Z,8.00
2022-07-31T21:11:19.858Z,8.30
2022-07-31T21:13:48.639Z,7.80
2022-07-31T21:16:19.274Z,6.50
2022-07-31T21:18:50.113Z,7.40
2022-07-31T21:21:18.969Z,7.00
2022-07-31T21:23:47.889Z,7.30
2022-07-31T21:26:17.383Z,8.20
2022-07-31T21:28:50.700Z,7.80
2022-07-31T21:31:20.550Z,7.00
2022-07-31T21:33:50.068Z,8.90
2022-07-31T21:36:20.989Z,7.50
2022-07-31T21:38:50.599Z,16.30
2022-07-31T21:41:20.232Z,9.00
2022-07-31T21:43:59.578Z,8.90
2022-07-31T21:46:29.919Z,10.50
2022-07-31T21:48:59.882Z,9.90
2022-07-31T21:51:29.858Z,11.20
2022-07-31T21:53:58.859Z,11.60
2022-07-31T21:56:28.795Z,12.30
2022-07-31T21:58:57.719Z,7.90
2022-07-31T22:01:26.665Z,7.70
2022-07-31T22:03:55.564Z,5.80
2022-07-31T22:06:42.947Z,6.70
2022-07-31T22:09:11.849Z,5.90
2022-07-31T22:11:40.740Z,8.80
2022-07-31T22:14:09.616Z,8.00
2022-07-31T22:16:38.831Z,8.10
2022-07-31T22:19:08.664Z,10.60
2022-07-31T22:21:38.572Z,10.00
2022-07-31T22:24:10.118Z,10.20
2022-07-31T22:27:02.176Z,10.00
2022-07-31T22:29:34.139Z,9.70
2022-07-31T22:32:03.771Z,11.70
2022-07-31T22:34:37.809Z,10.40
2022-07-31T22:37:08.472Z,10.30
2022-07-31T22:39:38.823Z,11.10
2022-07-31T22:42:08.838Z,11.80
2022-07-31T22:44:38.120Z,10.60
2022-07-31T22:47:08.436Z,9.20
2022-07-31T22:49:37.802Z,9.10
2022-07-31T22:52:07.691Z,17.50
2022-07-31T22:54:36.776Z,16.60
2022-07-31T22:57:06.173Z,25.90
2022-07-31T22:59:35.147Z,23.30
2022-07-31T23:02:04.993Z,24.00
2022-07-31T23:04:34.352Z,23.80
2022-07-31T23:07:03.961Z,19.70
2022-07-31T23:09:33.590Z,16.00
2022-07-31T23:12:03.999Z,15.80
2022-07-31T23:14:33.080Z,15.80
2022-07-31T23:17:02.385Z,15.10
2022-07-31T23:19:31.321Z,13.20
2022-07-31T23:22:00.104Z,12.40
2022-07-31T23:24:28.936Z,10.30
2022-07-31T23:26:58.007Z,10.40
2022-07-31T23:29:26.902Z,12.30
2022-07-31T23:31:55.729Z,8.30
2022-07-31T23:34:24.521Z,8.80
2022-07-31T23:36:53.319Z,9.00
2022-07-31T23:39:22.529Z,7.80
2022-07-31T23:42:09.669Z,9.40
2022-07-31T23:44:41.023Z,8.10
2022-07-31T23:47:15.968Z,8.70
2022-07-31T23:49:45.279Z,8.20
2022-07-31T23:52:14.174Z,9.60
2022-07-31T23:54:43.103Z,10.50
2022-07-31T23:57:12.012Z,8.20
2022-07-31T23:59:40.882Z,8.90
